sensor_id;sensor_type;location;lat;lon;timestamp;P1;durP1;ratioP1;P2;durP2;ratioP2
74644;SDS011;63163;55.630;37.594;2023-04-24T00:00:34;5.8;;;2.5;;
74644;SDS011;63163;55.630;37.594;2023-04-24T00:01:36;7.5;;;2.8;;
74644;SDS011;63163;55.630;37.594;2023-04-24T00:02:37;6.5;;;2.8;;
74644;SDS011;63163;55.630;37.594;2023-04-24T00:03:38;6.2;;;3.0;;
74644;SDS011;63163;55.630;37.594;2023-04-24T00:04:39;9.3;;;3.0;;
74644;SDS011;63163;55.630;37.594;2023-04-24T00:05:40;4.5;;;2.5;;
74644;SDS011;63163;55.630;37.594;2023-04-24T00:06:41;6.3;;;2.9;;
74644;SDS011;63163;55.630;37.594;2023-04-24T00:07:43;7.0;;;3.0;;
74644;SDS011;63163;55.630;37.594;2023-04-24T00:08:43;7.4;;;3.2;;
74644;SDS011;63163;55.630;37.594;2023-04-24T00:09:44;5.5;;;3.1;;
74644;SDS011;63163;55.630;37.594;2023-04-24T00:10:45;5.6;;;3.3;;
74644;SDS011;63163;55.630;37.594;2023-04-24T00:11:46;6.3;;;3.0;;
74644;SDS011;63163;55.630;37.594;2023-04-24T00:12:47;5.7;;;3.3;;
74644;SDS011;63163;55.630;37.594;2023-04-24T00:13:47;5.7;;;3.3;;
74644;SDS011;63163;55.630;37.594;2023-04-24T00:14:48;6.0;;;3.1;;
74644;SDS011;63163;55.630;37.594;2023-04-24T00:15:48;7.8;;;3.0;;
74644;SDS011;63163;55.630;37.594;2023-04-24T00:16:49;6.5;;;3.2;;
74644;SDS011;63163;55.630;37.594;2023-04-24T00:17:49;6.4;;;2.9;;
74644;SDS011;63163;55.630;37.594;2023-04-24T00:18:50;7.8;;;2.9;;
74644;SDS011;63163;55.630;37.594;2023-04-24T00:19:52;6.3;;;3.7;;
74644;SDS011;63163;55.630;37.594;2023-04-24T00:20:58;9.2;;;3.2;;
74644;SDS011;63163;55.630;37.594;2023-04-24T00:21:59;7.8;;;3.6;;
74644;SDS011;63163;55.630;37.594;2023-04-24T00:23:00;7.6;;;3.1;;
74644;SDS011;63163;55.630;37.594;2023-04-24T00:24:00;9.6;;;3.4;;
74644;SDS011;63163;55.630;37.594;2023-04-24T00:25:00;8.1;;;3.3;;
74644;SDS011;63163;55.630;37.594;2023-04-24T00:26:01;7.2;;;3.7;;
74644;SDS011;63163;55.630;37.594;2023-04-24T00:27:02;7.0;;;3.7;;
74644;SDS011;63163;55.630;37.594;2023-04-24T00:28:02;6.6;;;3.5;;
74644;SDS011;63163;55.630;37.594;2023-04-24T00:29:03;9.1;;;3.6;;
74644;SDS011;63163;55.630;37.594;2023-04-24T00:30:04;8.4;;;3.4;;
74644;SDS011;63163;55.630;37.594;2023-04-24T00:31:05;7.0;;;3.5;;
74644;SDS011;63163;55.630;37.594;2023-04-24T00:32:05;9.7;;;3.7;;
74644;SDS011;63163;55.630;37.594;2023-04-24T00:33:06;5.6;;;3.2;;
74644;SDS011;63163;55.630;37.594;2023-04-24T00:34:06;7.5;;;3.3;;
74644;SDS011;63163;55.630;37.594;2023-04-24T00:35:08;6.8;;;4.0;;
74644;SDS011;63163;55.630;37.594;2023-04-24T00:36:08;8.8;;;3.6;;
74644;SDS011;63163;55.630;37.594;2023-04-24T00:37:09;6.9;;;3.5;;
74644;SDS011;63163;55.630;37.594;2023-04-24T00:38:09;7.8;;;3.6;;
74644;SDS011;63163;55.630;37.594;2023-04-24T00:39:10;7.1;;;3.9;;
74644;SDS011;63163;55.630;37.594;2023-04-24T00:40:11;8.1;;;3.9;;
74644;SDS011;63163;55.630;37.594;2023-04-24T00:41:11;5.9;;;3.7;;
74644;SDS011;63163;55.630;37.594;2023-04-24T00:42:12;7.4;;;4.2;;
74644;SDS011;63163;55.630;37.594;2023-04-24T00:43:12;7.3;;;3.6;;
74644;SDS011;63163;55.630;37.594;2023-04-24T00:44:13;7.2;;;3.7;;
74644;SDS011;63163;55.630;37.594;2023-04-24T00:45:13;8.5;;;4.1;;
74644;SDS011;63163;55.630;37.594;2023-04-24T00:46:14;10.2;;;4.4;;
74644;SDS011;63163;55.630;37.594;2023-04-24T00:47:15;9.3;;;3.7;;
74644;SDS011;63163;55.630;37.594;2023-04-24T00:48:15;7.6;;;3.9;;
74644;SDS011;63163;55.630;37.594;2023-04-24T00:49:16;7.9;;;4.0;;
74644;SDS011;63163;55.630;37.594;2023-04-24T00:50:16;7.0;;;4.2;;
74644;SDS011;63163;55.630;37.594;2023-04-24T00:51:18;7.7;;;3.5;;
74644;SDS011;63163;55.630;37.594;2023-04-24T00:52:18;7.2;;;3.8;;
74644;SDS011;63163;55.630;37.594;2023-04-24T00:53:19;8.1;;;4.8;;
74644;SDS011;63163;55.630;37.594;2023-04-24T00:54:20;8.6;;;4.5;;
74644;SDS011;63163;55.630;37.594;2023-04-24T00:55:20;8.4;;;4.4;;
74644;SDS011;63163;55.630;37.594;2023-04-24T00:56:21;7.3;;;4.1;;
74644;SDS011;63163;55.630;37.594;2023-04-24T00:57:21;8.3;;;4.2;;
74644;SDS011;63163;55.630;37.594;2023-04-24T00:58:24;8.3;;;4.4;;
74644;SDS011;63163;55.630;37.594;2023-04-24T00:59:24;7.7;;;4.2;;
74644;SDS011;63163;55.630;37.594;2023-04-24T01:00:25;7.8;;;4.2;;
74644;SDS011;63163;55.630;37.594;2023-04-24T01:01:26;8.4;;;4.2;;
74644;SDS011;63163;55.630;37.594;2023-04-24T01:02:27;7.8;;;4.5;;
74644;SDS011;63163;55.630;37.594;2023-04-24T01:03:29;9.1;;;4.5;;
74644;SDS011;63163;55.630;37.594;2023-04-24T01:04:30;9.3;;;4.3;;
74644;SDS011;63163;55.630;37.594;2023-04-24T01:05:30;8.4;;;4.4;;
74644;SDS011;63163;55.630;37.594;2023-04-24T01:06:31;11.1;;;4.8;;
74644;SDS011;63163;55.630;37.594;2023-04-24T01:07:32;8.0;;;4.7;;
74644;SDS011;63163;55.630;37.594;2023-04-24T01:08:33;8.9;;;4.9;;
74644;SDS011;63163;55.630;37.594;2023-04-24T01:09:35;7.7;;;4.6;;
74644;SDS011;63163;55.630;37.594;2023-04-24T01:10:36;10.1;;;4.5;;
74644;SDS011;63163;55.630;37.594;2023-04-24T01:11:36;8.9;;;4.7;;
74644;SDS011;63163;55.630;37.594;2023-04-24T01:12:37;11.5;;;5.0;;
74644;SDS011;63163;55.630;37.594;2023-04-24T01:13:38;11.5;;;5.5;;
74644;SDS011;63163;55.630;37.594;2023-04-24T01:14:38;9.0;;;5.0;;
74644;SDS011;63163;55.630;37.594;2023-04-24T01:15:39;9.2;;;5.4;;
74644;SDS011;63163;55.630;37.594;2023-04-24T01:16:39;9.3;;;5.0;;
74644;SDS011;63163;55.630;37.594;2023-04-24T01:17:41;8.7;;;5.2;;
74644;SDS011;63163;55.630;37.594;2023-04-24T01:18:42;11.0;;;5.1;;
74644;SDS011;63163;55.630;37.594;2023-04-24T01:19:42;9.2;;;5.1;;
74644;SDS011;63163;55.630;37.594;2023-04-24T01:20:44;7.3;;;4.6;;
74644;SDS011;63163;55.630;37.594;2023-04-24T01:21:46;8.0;;;4.8;;
74644;SDS011;63163;55.630;37.594;2023-04-24T01:22:47;8.3;;;5.1;;
74644;SDS011;63163;55.630;37.594;2023-04-24T01:23:48;9.1;;;5.0;;
74644;SDS011;63163;55.630;37.594;2023-04-24T01:24:48;9.2;;;5.0;;
74644;SDS011;63163;55.630;37.594;2023-04-24T01:25:49;7.2;;;4.4;;
74644;SDS011;63163;55.630;37.594;2023-04-24T01:26:50;7.9;;;4.6;;
74644;SDS011;63163;55.630;37.594;2023-04-24T01:27:51;9.3;;;5.1;;
74644;SDS011;63163;55.630;37.594;2023-04-24T01:28:51;9.0;;;4.8;;
74644;SDS011;63163;55.630;37.594;2023-04-24T01:29:52;9.2;;;4.8;;
74644;SDS011;63163;55.630;37.594;2023-04-24T01:30:53;9.5;;;5.0;;
74644;SDS011;63163;55.630;37.594;2023-04-24T01:31:54;7.8;;;4.9;;
74644;SDS011;63163;55.630;37.594;2023-04-24T01:32:55;9.6;;;4.7;;
74644;SDS011;63163;55.630;37.594;2023-04-24T01:33:56;10.3;;;4.9;;
74644;SDS011;63163;55.630;37.594;2023-04-24T01:34:56;9.7;;;5.3;;
74644;SDS011;63163;55.630;37.594;2023-04-24T01:35:57;9.4;;;5.2;;
74644;SDS011;63163;55.630;37.594;2023-04-24T01:36:58;10.9;;;5.6;;
74644;SDS011;63163;55.630;37.594;2023-04-24T01:37:59;8.3;;;4.7;;
74644;SDS011;63163;55.630;37.594;2023-04-24T01:38:59;9.8;;;5.6;;
74644;SDS011;63163;55.630;37.594;2023-04-24T01:40:00;8.4;;;5.0;;
74644;SDS011;63163;55.630;37.594;2023-04-24T01:41:01;9.6;;;5.5;;
74644;SDS011;63163;55.630;37.594;2023-04-24T01:42:01;9.0;;;5.5;;
74644;SDS011;63163;55.630;37.594;2023-04-24T01:43:03;8.6;;;5.6;;
74644;SDS011;63163;55.630;37.594;2023-04-24T01:44:03;8.0;;;5.2;;
74644;SDS011;63163;55.630;37.594;2023-04-24T01:45:04;9.7;;;5.2;;
74644;SDS011;63163;55.630;37.594;2023-04-24T01:46:05;10.6;;;5.6;;
74644;SDS011;63163;55.630;37.594;2023-04-24T01:47:06;10.1;;;5.3;;
74644;SDS011;63163;55.630;37.594;2023-04-24T01:48:07;10.1;;;5.4;;
74644;SDS011;63163;55.630;37.594;2023-04-24T01:49:07;9.0;;;5.7;;
74644;SDS011;63163;55.630;37.594;2023-04-24T01:50:08;9.4;;;4.9;;
74644;SDS011;63163;55.630;37.594;2023-04-24T01:51:09;8.4;;;5.2;;
74644;SDS011;63163;55.630;37.594;2023-04-24T01:52:09;8.7;;;5.4;;
74644;SDS011;63163;55.630;37.594;2023-04-24T01:53:10;9.6;;;5.6;;
74644;SDS011;63163;55.630;37.594;2023-04-24T01:54:11;11.2;;;5.8;;
74644;SDS011;63163;55.630;37.594;2023-04-24T01:55:12;12.0;;;6.3;;
74644;SDS011;63163;55.630;37.594;2023-04-24T01:56:12;10.9;;;5.8;;
74644;SDS011;63163;55.630;37.594;2023-04-24T01:57:14;12.8;;;6.3;;
74644;SDS011;63163;55.630;37.594;2023-04-24T01:58:14;10.2;;;5.6;;
74644;SDS011;63163;55.630;37.594;2023-04-24T01:59:15;11.1;;;5.7;;
74644;SDS011;63163;55.630;37.594;2023-04-24T02:00:17;10.4;;;5.5;;
74644;SDS011;63163;55.630;37.594;2023-04-24T02:01:18;8.3;;;5.6;;
74644;SDS011;63163;55.630;37.594;2023-04-24T02:02:18;10.3;;;6.0;;
74644;SDS011;63163;55.630;37.594;2023-04-24T02:03:21;9.2;;;5.7;;
74644;SDS011;63163;55.630;37.594;2023-04-24T02:04:21;9.7;;;6.0;;
74644;SDS011;63163;55.630;37.594;2023-04-24T02:05:22;12.1;;;6.1;;
74644;SDS011;63163;55.630;37.594;2023-04-24T02:06:23;9.3;;;5.5;;
74644;SDS011;63163;55.630;37.594;2023-04-24T02:07:23;11.1;;;6.2;;
74644;SDS011;63163;55.630;37.594;2023-04-24T02:08:24;13.8;;;6.1;;
74644;SDS011;63163;55.630;37.594;2023-04-24T02:09:25;9.1;;;5.7;;
74644;SDS011;63163;55.630;37.594;2023-04-24T02:10:25;12.6;;;5.3;;
74644;SDS011;63163;55.630;37.594;2023-04-24T02:11:26;10.4;;;5.9;;
74644;SDS011;63163;55.630;37.594;2023-04-24T02:12:26;11.7;;;5.6;;
74644;SDS011;63163;55.630;37.594;2023-04-24T02:13:27;11.5;;;6.1;;
74644;SDS011;63163;55.630;37.594;2023-04-24T02:14:27;9.7;;;5.8;;
74644;SDS011;63163;55.630;37.594;2023-04-24T02:15:28;11.6;;;5.9;;
74644;SDS011;63163;55.630;37.594;2023-04-24T02:16:28;12.1;;;6.1;;
74644;SDS011;63163;55.630;37.594;2023-04-24T02:17:32;10.9;;;6.5;;
74644;SDS011;63163;55.630;37.594;2023-04-24T02:18:33;10.8;;;6.0;;
74644;SDS011;63163;55.630;37.594;2023-04-24T02:19:33;10.8;;;5.7;;
74644;SDS011;63163;55.630;37.594;2023-04-24T02:20:33;10.5;;;5.8;;
74644;SDS011;63163;55.630;37.594;2023-04-24T02:21:35;12.4;;;6.2;;
74644;SDS011;63163;55.630;37.594;2023-04-24T02:22:36;8.1;;;5.4;;
74644;SDS011;63163;55.630;37.594;2023-04-24T02:23:36;9.4;;;5.6;;
74644;SDS011;63163;55.630;37.594;2023-04-24T02:24:37;8.0;;;5.4;;
74644;SDS011;63163;55.630;37.594;2023-04-24T02:25:37;9.1;;;5.6;;
74644;SDS011;63163;55.630;37.594;2023-04-24T02:26:38;9.0;;;5.6;;
74644;SDS011;63163;55.630;37.594;2023-04-24T02:27:38;10.0;;;5.7;;
74644;SDS011;63163;55.630;37.594;2023-04-24T02:28:39;10.2;;;5.7;;
74644;SDS011;63163;55.630;37.594;2023-04-24T02:29:39;9.5;;;5.5;;
74644;SDS011;63163;55.630;37.594;2023-04-24T02:30:40;10.2;;;5.6;;
74644;SDS011;63163;55.630;37.594;2023-04-24T02:31:40;10.5;;;5.5;;
74644;SDS011;63163;55.630;37.594;2023-04-24T02:32:41;9.1;;;5.7;;
74644;SDS011;63163;55.630;37.594;2023-04-24T02:33:41;9.9;;;5.5;;
74644;SDS011;63163;55.630;37.594;2023-04-24T02:34:42;9.9;;;5.7;;
74644;SDS011;63163;55.630;37.594;2023-04-24T02:35:42;9.9;;;5.6;;
74644;SDS011;63163;55.630;37.594;2023-04-24T02:36:43;11.7;;;5.6;;
74644;SDS011;63163;55.630;37.594;2023-04-24T02:37:43;10.3;;;5.9;;
74644;SDS011;63163;55.630;37.594;2023-04-24T02:38:44;10.3;;;5.5;;
74644;SDS011;63163;55.630;37.594;2023-04-24T02:39:45;12.1;;;5.7;;
74644;SDS011;63163;55.630;37.594;2023-04-24T02:40:46;8.4;;;5.4;;
74644;SDS011;63163;55.630;37.594;2023-04-24T02:41:46;9.6;;;5.7;;
74644;SDS011;63163;55.630;37.594;2023-04-24T02:42:48;9.4;;;6.0;;
74644;SDS011;63163;55.630;37.594;2023-04-24T02:43:48;10.1;;;5.9;;
74644;SDS011;63163;55.630;37.594;2023-04-24T02:44:49;11.5;;;5.7;;
74644;SDS011;63163;55.630;37.594;2023-04-24T02:45:51;8.9;;;5.4;;
74644;SDS011;63163;55.630;37.594;2023-04-24T02:46:52;10.0;;;6.0;;
74644;SDS011;63163;55.630;37.594;2023-04-24T02:47:52;9.4;;;6.0;;
74644;SDS011;63163;55.630;37.594;2023-04-24T02:48:53;9.4;;;5.2;;
74644;SDS011;63163;55.630;37.594;2023-04-24T02:49:53;9.3;;;5.2;;
74644;SDS011;63163;55.630;37.594;2023-04-24T02:50:53;8.4;;;5.3;;
74644;SDS011;63163;55.630;37.594;2023-04-24T02:51:54;10.6;;;5.9;;
74644;SDS011;63163;55.630;37.594;2023-04-24T02:52:54;9.8;;;5.6;;
74644;SDS011;63163;55.630;37.594;2023-04-24T02:53:55;9.9;;;5.2;;
74644;SDS011;63163;55.630;37.594;2023-04-24T02:54:55;10.3;;;5.6;;
74644;SDS011;63163;55.630;37.594;2023-04-24T02:55:56;8.9;;;6.0;;
74644;SDS011;63163;55.630;37.594;2023-04-24T02:56:57;11.8;;;6.1;;
74644;SDS011;63163;55.630;37.594;2023-04-24T02:57:57;9.5;;;5.5;;
74644;SDS011;63163;55.630;37.594;2023-04-24T02:58:58;10.3;;;5.6;;
74644;SDS011;63163;55.630;37.594;2023-04-24T02:59:58;9.1;;;5.7;;
74644;SDS011;63163;55.630;37.594;2023-04-24T03:00:59;10.0;;;5.6;;
74644;SDS011;63163;55.630;37.594;2023-04-24T03:01:59;9.5;;;5.9;;
74644;SDS011;63163;55.630;37.594;2023-04-24T03:03:00;9.9;;;5.4;;
74644;SDS011;63163;55.630;37.594;2023-04-24T03:04:01;11.8;;;5.7;;
74644;SDS011;63163;55.630;37.594;2023-04-24T03:05:01;8.4;;;5.4;;
74644;SDS011;63163;55.630;37.594;2023-04-24T03:06:02;10.7;;;6.0;;
74644;SDS011;63163;55.630;37.594;2023-04-24T03:07:03;10.4;;;5.7;;
74644;SDS011;63163;55.630;37.594;2023-04-24T03:08:04;8.9;;;5.5;;
74644;SDS011;63163;55.630;37.594;2023-04-24T03:09:05;9.6;;;5.6;;
74644;SDS011;63163;55.630;37.594;2023-04-24T03:10:06;8.6;;;5.5;;
74644;SDS011;63163;55.630;37.594;2023-04-24T03:11:07;9.5;;;5.5;;
74644;SDS011;63163;55.630;37.594;2023-04-24T03:12:07;9.6;;;5.6;;
74644;SDS011;63163;55.630;37.594;2023-04-24T03:13:08;8.9;;;5.8;;
74644;SDS011;63163;55.630;37.594;2023-04-24T03:14:08;10.3;;;5.6;;
74644;SDS011;63163;55.630;37.594;2023-04-24T03:15:09;9.7;;;5.7;;
74644;SDS011;63163;55.630;37.594;2023-04-24T03:16:09;10.3;;;5.4;;
74644;SDS011;63163;55.630;37.594;2023-04-24T03:17:10;9.9;;;5.6;;
74644;SDS011;63163;55.630;37.594;2023-04-24T03:18:10;9.3;;;5.5;;
74644;SDS011;63163;55.630;37.594;2023-04-24T03:19:11;9.9;;;5.4;;
74644;SDS011;63163;55.630;37.594;2023-04-24T03:20:12;8.5;;;5.5;;
74644;SDS011;63163;55.630;37.594;2023-04-24T03:21:12;9.8;;;5.9;;
74644;SDS011;63163;55.630;37.594;2023-04-24T03:22:13;10.7;;;5.6;;
74644;SDS011;63163;55.630;37.594;2023-04-24T03:23:13;11.5;;;5.4;;
74644;SDS011;63163;55.630;37.594;2023-04-24T03:24:14;9.6;;;5.6;;
74644;SDS011;63163;55.630;37.594;2023-04-24T03:25:14;9.9;;;5.7;;
74644;SDS011;63163;55.630;37.594;2023-04-24T03:26:15;10.4;;;5.5;;
74644;SDS011;63163;55.630;37.594;2023-04-24T03:27:15;11.2;;;5.4;;
74644;SDS011;63163;55.630;37.594;2023-04-24T03:28:16;10.2;;;5.8;;
74644;SDS011;63163;55.630;37.594;2023-04-24T03:29:16;8.1;;;5.2;;
74644;SDS011;63163;55.630;37.594;2023-04-24T03:30:17;8.4;;;5.1;;
74644;SDS011;63163;55.630;37.594;2023-04-24T03:31:18;8.8;;;5.2;;
74644;SDS011;63163;55.630;37.594;2023-04-24T03:32:19;9.6;;;5.1;;
74644;SDS011;63163;55.630;37.594;2023-04-24T03:33:19;9.8;;;5.6;;
74644;SDS011;63163;55.630;37.594;2023-04-24T03:34:20;11.2;;;5.9;;
74644;SDS011;63163;55.630;37.594;2023-04-24T03:35:20;9.5;;;5.2;;
74644;SDS011;63163;55.630;37.594;2023-04-24T03:36:22;10.1;;;5.0;;
74644;SDS011;63163;55.630;37.594;2023-04-24T03:37:22;11.6;;;5.5;;
74644;SDS011;63163;55.630;37.594;2023-04-24T03:38:23;9.5;;;5.1;;
74644;SDS011;63163;55.630;37.594;2023-04-24T03:39:23;10.8;;;5.2;;
74644;SDS011;63163;55.630;37.594;2023-04-24T03:40:25;8.7;;;5.6;;
74644;SDS011;63163;55.630;37.594;2023-04-24T03:41:25;10.6;;;5.5;;
74644;SDS011;63163;55.630;37.594;2023-04-24T03:42:26;10.4;;;4.9;;
74644;SDS011;63163;55.630;37.594;2023-04-24T03:43:27;10.9;;;5.4;;
74644;SDS011;63163;55.630;37.594;2023-04-24T03:44:27;9.3;;;5.0;;
74644;SDS011;63163;55.630;37.594;2023-04-24T03:45:28;13.2;;;5.5;;
74644;SDS011;63163;55.630;37.594;2023-04-24T03:46:28;10.8;;;5.2;;
74644;SDS011;63163;55.630;37.594;2023-04-24T03:47:29;10.4;;;5.4;;
74644;SDS011;63163;55.630;37.594;2023-04-24T03:48:29;10.9;;;5.3;;
74644;SDS011;63163;55.630;37.594;2023-04-24T03:49:30;8.2;;;5.1;;
74644;SDS011;63163;55.630;37.594;2023-04-24T03:50:30;10.7;;;5.4;;
74644;SDS011;63163;55.630;37.594;2023-04-24T03:51:31;8.8;;;5.3;;
74644;SDS011;63163;55.630;37.594;2023-04-24T03:52:31;10.0;;;5.3;;
74644;SDS011;63163;55.630;37.594;2023-04-24T03:53:32;9.2;;;5.2;;
74644;SDS011;63163;55.630;37.594;2023-04-24T03:54:32;9.6;;;5.1;;
74644;SDS011;63163;55.630;37.594;2023-04-24T03:55:33;9.3;;;5.2;;
74644;SDS011;63163;55.630;37.594;2023-04-24T03:56:33;9.7;;;4.9;;
74644;SDS011;63163;55.630;37.594;2023-04-24T03:57:34;8.0;;;4.8;;
74644;SDS011;63163;55.630;37.594;2023-04-24T03:58:34;12.0;;;5.8;;
74644;SDS011;63163;55.630;37.594;2023-04-24T03:59:35;7.7;;;4.8;;
74644;SDS011;63163;55.630;37.594;2023-04-24T04:00:35;9.7;;;5.3;;
74644;SDS011;63163;55.630;37.594;2023-04-24T04:01:37;8.3;;;4.7;;
74644;SDS011;63163;55.630;37.594;2023-04-24T04:02:38;8.9;;;5.2;;
74644;SDS011;63163;55.630;37.594;2023-04-24T04:03:38;10.3;;;5.0;;
74644;SDS011;63163;55.630;37.594;2023-04-24T04:04:39;10.8;;;5.2;;
74644;SDS011;63163;55.630;37.594;2023-04-24T04:05:39;8.0;;;5.1;;
74644;SDS011;63163;55.630;37.594;2023-04-24T04:06:40;8.6;;;5.2;;
74644;SDS011;63163;55.630;37.594;2023-04-24T04:07:40;8.6;;;4.9;;
74644;SDS011;63163;55.630;37.594;2023-04-24T04:08:41;10.6;;;5.2;;
74644;SDS011;63163;55.630;37.594;2023-04-24T04:09:41;7.7;;;4.6;;
74644;SDS011;63163;55.630;37.594;2023-04-24T04:10:42;8.3;;;4.7;;
74644;SDS011;63163;55.630;37.594;2023-04-24T04:11:42;8.2;;;4.6;;
74644;SDS011;63163;55.630;37.594;2023-04-24T04:12:43;9.9;;;4.7;;
74644;SDS011;63163;55.630;37.594;2023-04-24T04:13:43;9.0;;;4.6;;
74644;SDS011;63163;55.630;37.594;2023-04-24T04:14:44;10.3;;;5.5;;
74644;SDS011;63163;55.630;37.594;2023-04-24T04:15:44;10.5;;;4.9;;
74644;SDS011;63163;55.630;37.594;2023-04-24T04:16:45;8.9;;;4.7;;
74644;SDS011;63163;55.630;37.594;2023-04-24T04:17:46;8.6;;;5.0;;
74644;SDS011;63163;55.630;37.594;2023-04-24T04:18:47;11.4;;;5.0;;
74644;SDS011;63163;55.630;37.594;2023-04-24T04:19:47;7.6;;;4.4;;
74644;SDS011;63163;55.630;37.594;2023-04-24T04:20:48;8.3;;;4.7;;
74644;SDS011;63163;55.630;37.594;2023-04-24T04:21:48;10.2;;;4.6;;
74644;SDS011;63163;55.630;37.594;2023-04-24T04:22:53;10.8;;;4.8;;
74644;SDS011;63163;55.630;37.594;2023-04-24T04:23:53;8.7;;;4.9;;
74644;SDS011;63163;55.630;37.594;2023-04-24T04:24:54;9.5;;;4.7;;
74644;SDS011;63163;55.630;37.594;2023-04-24T04:25:54;9.1;;;4.6;;
74644;SDS011;63163;55.630;37.594;2023-04-24T04:26:55;8.6;;;4.4;;
74644;SDS011;63163;55.630;37.594;2023-04-24T04:27:58;9.2;;;4.9;;
74644;SDS011;63163;55.630;37.594;2023-04-24T04:28:59;8.6;;;4.8;;
74644;SDS011;63163;55.630;37.594;2023-04-24T04:30:01;9.1;;;4.8;;
74644;SDS011;63163;55.630;37.594;2023-04-24T04:31:04;10.0;;;4.8;;
74644;SDS011;63163;55.630;37.594;2023-04-24T04:32:05;9.7;;;4.8;;
74644;SDS011;63163;55.630;37.594;2023-04-24T04:33:06;8.9;;;4.9;;
74644;SDS011;63163;55.630;37.594;2023-04-24T04:34:06;10.1;;;4.6;;
74644;SDS011;63163;55.630;37.594;2023-04-24T04:35:07;8.5;;;4.5;;
74644;SDS011;63163;55.630;37.594;2023-04-24T04:36:09;9.7;;;4.7;;
74644;SDS011;63163;55.630;37.594;2023-04-24T04:37:10;10.5;;;5.0;;
74644;SDS011;63163;55.630;37.594;2023-04-24T04:38:11;8.3;;;4.5;;
74644;SDS011;63163;55.630;37.594;2023-04-24T04:39:11;8.9;;;5.0;;
74644;SDS011;63163;55.630;37.594;2023-04-24T04:40:14;7.9;;;4.6;;
74644;SDS011;63163;55.630;37.594;2023-04-24T04:41:15;9.1;;;5.1;;
74644;SDS011;63163;55.630;37.594;2023-04-24T04:42:17;10.4;;;5.0;;
74644;SDS011;63163;55.630;37.594;2023-04-24T04:43:19;10.7;;;5.0;;
74644;SDS011;63163;55.630;37.594;2023-04-24T04:44:19;7.6;;;4.5;;
74644;SDS011;63163;55.630;37.594;2023-04-24T04:45:20;8.5;;;4.5;;
74644;SDS011;63163;55.630;37.594;2023-04-24T04:46:20;8.5;;;4.8;;
74644;SDS011;63163;55.630;37.594;2023-04-24T04:47:21;10.3;;;4.8;;
74644;SDS011;63163;55.630;37.594;2023-04-24T04:48:23;11.8;;;4.6;;
74644;SDS011;63163;55.630;37.594;2023-04-24T04:49:24;8.6;;;4.6;;
74644;SDS011;63163;55.630;37.594;2023-04-24T04:50:24;8.7;;;4.6;;
74644;SDS011;63163;55.630;37.594;2023-04-24T04:51:25;8.2;;;4.7;;
74644;SDS011;63163;55.630;37.594;2023-04-24T04:52:26;9.2;;;4.5;;
74644;SDS011;63163;55.630;37.594;2023-04-24T04:53:26;10.0;;;4.6;;
74644;SDS011;63163;55.630;37.594;2023-04-24T04:54:27;8.2;;;4.5;;
74644;SDS011;63163;55.630;37.594;2023-04-24T04:55:27;8.0;;;4.7;;
74644;SDS011;63163;55.630;37.594;2023-04-24T04:56:28;11.8;;;4.6;;
74644;SDS011;63163;55.630;37.594;2023-04-24T04:57:29;10.0;;;4.5;;
74644;SDS011;63163;55.630;37.594;2023-04-24T04:58:30;8.5;;;4.2;;
74644;SDS011;63163;55.630;37.594;2023-04-24T04:59:30;10.5;;;4.6;;
74644;SDS011;63163;55.630;37.594;2023-04-24T05:00:31;10.3;;;4.7;;
74644;SDS011;63163;55.630;37.594;2023-04-24T05:01:35;11.0;;;4.4;;
74644;SDS011;63163;55.630;37.594;2023-04-24T05:02:36;9.9;;;4.9;;
74644;SDS011;63163;55.630;37.594;2023-04-24T05:03:37;8.5;;;4.9;;
74644;SDS011;63163;55.630;37.594;2023-04-24T05:04:37;9.0;;;5.1;;
74644;SDS011;63163;55.630;37.594;2023-04-24T05:05:38;8.0;;;4.6;;
74644;SDS011;63163;55.630;37.594;2023-04-24T05:06:40;7.4;;;4.6;;
74644;SDS011;63163;55.630;37.594;2023-04-24T05:07:41;8.0;;;4.2;;
74644;SDS011;63163;55.630;37.594;2023-04-24T05:08:41;8.8;;;4.6;;
74644;SDS011;63163;55.630;37.594;2023-04-24T05:09:42;8.9;;;4.8;;
74644;SDS011;63163;55.630;37.594;2023-04-24T05:10:42;11.8;;;5.1;;
74644;SDS011;63163;55.630;37.594;2023-04-24T05:11:43;10.9;;;4.6;;
74644;SDS011;63163;55.630;37.594;2023-04-24T05:12:43;11.2;;;4.7;;
74644;SDS011;63163;55.630;37.594;2023-04-24T05:13:44;9.6;;;4.9;;
74644;SDS011;63163;55.630;37.594;2023-04-24T05:14:45;8.3;;;4.9;;
74644;SDS011;63163;55.630;37.594;2023-04-24T05:15:45;11.5;;;5.3;;
74644;SDS011;63163;55.630;37.594;2023-04-24T05:16:46;9.7;;;4.9;;
74644;SDS011;63163;55.630;37.594;2023-04-24T05:17:46;11.6;;;4.7;;
74644;SDS011;63163;55.630;37.594;2023-04-24T05:18:47;9.7;;;5.1;;
74644;SDS011;63163;55.630;37.594;2023-04-24T05:19:47;11.1;;;4.9;;
74644;SDS011;63163;55.630;37.594;2023-04-24T05:20:48;10.0;;;4.8;;
74644;SDS011;63163;55.630;37.594;2023-04-24T05:21:49;10.4;;;5.0;;
74644;SDS011;63163;55.630;37.594;2023-04-24T05:22:49;10.5;;;5.0;;
74644;SDS011;63163;55.630;37.594;2023-04-24T05:23:50;11.5;;;5.0;;
74644;SDS011;63163;55.630;37.594;2023-04-24T05:24:50;13.9;;;5.1;;
74644;SDS011;63163;55.630;37.594;2023-04-24T05:25:51;8.9;;;4.4;;
74644;SDS011;63163;55.630;37.594;2023-04-24T05:26:51;10.4;;;5.0;;
74644;SDS011;63163;55.630;37.594;2023-04-24T05:27:52;9.7;;;4.8;;
74644;SDS011;63163;55.630;37.594;2023-04-24T05:28:53;10.3;;;4.9;;
74644;SDS011;63163;55.630;37.594;2023-04-24T05:29:54;9.1;;;4.9;;
74644;SDS011;63163;55.630;37.594;2023-04-24T05:30:54;12.2;;;5.1;;
74644;SDS011;63163;55.630;37.594;2023-04-24T05:31:56;10.4;;;4.8;;
74644;SDS011;63163;55.630;37.594;2023-04-24T05:32:56;11.0;;;5.4;;
74644;SDS011;63163;55.630;37.594;2023-04-24T05:33:57;12.4;;;4.9;;
74644;SDS011;63163;55.630;37.594;2023-04-24T05:34:57;11.0;;;5.3;;
74644;SDS011;63163;55.630;37.594;2023-04-24T05:35:58;21.3;;;5.4;;
74644;SDS011;63163;55.630;37.594;2023-04-24T05:36:58;10.7;;;5.1;;
74644;SDS011;63163;55.630;37.594;2023-04-24T05:37:59;11.3;;;4.9;;
74644;SDS011;63163;55.630;37.594;2023-04-24T05:38:59;10.2;;;5.1;;
74644;SDS011;63163;55.630;37.594;2023-04-24T05:40:00;8.7;;;5.0;;
74644;SDS011;63163;55.630;37.594;2023-04-24T05:41:00;10.4;;;5.1;;
74644;SDS011;63163;55.630;37.594;2023-04-24T05:42:01;10.2;;;5.1;;
74644;SDS011;63163;55.630;37.594;2023-04-24T05:43:03;9.8;;;5.2;;
74644;SDS011;63163;55.630;37.594;2023-04-24T05:44:03;10.5;;;5.1;;
74644;SDS011;63163;55.630;37.594;2023-04-24T05:45:04;12.2;;;4.7;;
74644;SDS011;63163;55.630;37.594;2023-04-24T05:46:05;13.1;;;5.2;;
74644;SDS011;63163;55.630;37.594;2023-04-24T05:47:06;16.5;;;5.1;;
74644;SDS011;63163;55.630;37.594;2023-04-24T05:48:06;10.3;;;5.2;;
74644;SDS011;63163;55.630;37.594;2023-04-24T05:49:07;12.5;;;5.1;;
74644;SDS011;63163;55.630;37.594;2023-04-24T05:50:08;12.8;;;5.0;;
74644;SDS011;63163;55.630;37.594;2023-04-24T05:51:09;11.3;;;4.9;;
74644;SDS011;63163;55.630;37.594;2023-04-24T05:52:09;11.1;;;5.0;;
74644;SDS011;63163;55.630;37.594;2023-04-24T05:53:10;10.4;;;4.8;;
74644;SDS011;63163;55.630;37.594;2023-04-24T05:54:10;12.2;;;5.1;;
74644;SDS011;63163;55.630;37.594;2023-04-24T05:55:12;11.4;;;5.3;;
74644;SDS011;63163;55.630;37.594;2023-04-24T05:56:13;8.8;;;4.5;;
74644;SDS011;63163;55.630;37.594;2023-04-24T05:57:14;9.6;;;4.6;;
74644;SDS011;63163;55.630;37.594;2023-04-24T05:58:14;11.1;;;5.1;;
74644;SDS011;63163;55.630;37.594;2023-04-24T05:59:15;8.4;;;4.7;;
74644;SDS011;63163;55.630;37.594;2023-04-24T06:00:16;10.8;;;5.1;;
74644;SDS011;63163;55.630;37.594;2023-04-24T06:01:18;12.2;;;5.0;;
74644;SDS011;63163;55.630;37.594;2023-04-24T06:02:19;10.0;;;5.3;;
74644;SDS011;63163;55.630;37.594;2023-04-24T06:03:20;11.9;;;5.4;;
74644;SDS011;63163;55.630;37.594;2023-04-24T06:04:20;12.5;;;5.1;;
74644;SDS011;63163;55.630;37.594;2023-04-24T06:05:21;10.9;;;4.7;;
74644;SDS011;63163;55.630;37.594;2023-04-24T06:06:21;12.1;;;5.2;;
74644;SDS011;63163;55.630;37.594;2023-04-24T06:07:22;11.7;;;5.0;;
74644;SDS011;63163;55.630;37.594;2023-04-24T06:08:23;9.5;;;4.9;;
74644;SDS011;63163;55.630;37.594;2023-04-24T06:09:23;10.2;;;5.0;;